(°C)
18°
18°
18°
18°
17°
16°
16°
(°C)
11°
11°
11°
11°
11°
10°
O
O
O
O
O
O
O
(km/h)
27-37
27-39
26-39
24-37
22-28
21-27
22-28
(mm)
0
0
0
0
0
0
0
(%)
6
0
0
0
6
6
20

Sonnenhöhe

/ 32.2°
sun-icon
UV 1
07:20
19:31
Abnehmender Mond (220°)
20:53
10:51

METAR für 51.15°N 51.54°O (UARR)

Zeit Bedingungen Temperatur/
Taupunkt
Wind Sichtweite Wetter Wolken Druck Änderung Roh
VFR 18°C / 0°C 110º 17kt >10km - Clouds and Visibility OK 1013 No Significant change UARR 241000Z 11009MPS CAVOK 18/00 Q1013 R04/CLRD70 NOSIG RMK QFE756/1008
VFR 18°C / 0°C 120º 16kt >10km - Clouds and Visibility OK 1013 No Significant change UARR 240930Z 12008MPS CAVOK 18/M00 Q1013 R04/CLRD70 NOSIG RMK QFE756/1009
VFR 18°C / 1°C 110º 16kt >10km - Clouds and Visibility OK 1014 No Significant change UARR 240900Z 11008MPS CAVOK 18/01 Q1014 R04/CLRD70 NOSIG RMK QFE757/1009
VFR 17°C / 1°C 110º 16kt >10km - Clouds and Visibility OK 1014 No Significant change UARR 240830Z 11008MPS CAVOK 17/01 Q1014 R04/CLRD70 NOSIG RMK QFE757/1010
VFR 16°C / 1°C 110º 14kt >10km - Clouds and Visibility OK 1015 No Significant change UARR 240800Z 11007MPS CAVOK 16/01 Q1015 R04/CLRD70 NOSIG RMK QFE757/1010
VFR 16°C / 1°C 120º 16kt >10km - Clouds and Visibility OK 1015 No Significant change UARR 240730Z 12008MPS CAVOK 16/01 Q1015 R04/CLRD70 NOSIG RMK QFE758/1010
VFR 15°C / 2°C 120º 16kt Gust 25kt >10km - Clouds and Visibility OK 1015 No Significant change UARR 240700Z 12008G13MPS CAVOK 15/02 Q1015 R04/CLRD70 NOSIG RMK QFE758/1010
VFR 15°C / 1°C 120º 17kt >10km - Clouds and Visibility OK 1015 No Significant change UARR 240630Z 12009MPS CAVOK 15/01 Q1015 R04/CLRD70 NOSIG RMK QFE758/1011
VFR 14°C / 2°C 120º 17kt >10km - Clouds and Visibility OK 1015 No Significant change UARR 240600Z 12009MPS CAVOK 14/02 Q1015 R04/CLRD70 NOSIG RMK QFE758/1011
VFR 14°C / 1°C 120º 19kt >10km - Scattered Clouds 5000ft 1015 No Significant change UARR 240530Z 12010MPS 9999 SCT050CB 14/01 Q1015 R04/CLRD70 NOSIG RMK QFE758/1011
VFR 13°C / 1°C 120º 17kt >10km - Scattered Clouds 5000ft 1015 No Significant change UARR 240500Z 12009MPS 9999 SCT050CB 13/01 Q1015 R04/CLRD70 NOSIG RMK QFE758/1011
VFR 13°C / 1°C 130º 17kt >10km - Scattered Clouds 5000ft 1016 No Significant change UARR 240430Z 13009MPS 9999 SCT050CB 13/01 Q1016 R04/CLRD70 NOSIG RMK QFE758/1011
VFR 13°C / 1°C 130º 16kt >10km - Scattered Clouds 5000ft 1015 No Significant change UARR 240400Z 13008MPS 9999 SCT050CB 13/01 Q1015 R04/CLRD70 NOSIG RMK QFE758/1011
VFR 13°C / 2°C 120º 14kt >10km - Scattered Clouds 5000ft 1015 No Significant change. Runway 04: Wet or puddles, 51-100% contamination with <1mm, friction coefficient 0.60. UARR 240330Z 12007MPS 9999 SCT050CB 13/02 Q1015 R04/290060 NOSIG RMK QFE758/1011
VFR 12°C / 4°C 110º 16kt >10km - Scattered Clouds 5000ft 1015 No Significant change UARR 240300Z 11008MPS 9999 SCT050CB 12/04 Q1015 R04/CLRD70 NOSIG RMK QFE758/1010
VFR 13°C / 2°C 120º 19kt >10km - Clouds and Visibility OK 1015 No Significant change UARR 240230Z 12010MPS CAVOK 13/02 Q1015 R04/CLRD70 NOSIG RMK QFE758/1010
VFR 12°C / 2°C 120º 19kt >10km - Clouds and Visibility OK 1015 Temporary: 13015G20MPS RMK QFE758/1010 UARR 240200Z 12010MPS CAVOK 12/02 Q1015 R04/CLRD70 TEMPO 13015G20MPS RMK QFE758/1010
VFR 13°C / 3°C 120º 19kt >10km - Clouds and Visibility OK 1015 Temporary: 13015G20MPS RMK QFE758/1011 UARR 240130Z 12010MPS CAVOK 13/03 Q1015 R04/CLRD70 TEMPO 13015G20MPS RMK QFE758/1011
VFR 12°C / 3°C 120º 17kt >10km - Clouds and Visibility OK 1015 Temporary: 13015G20MPS RMK QFE758/1011 UARR 240100Z 12009MPS CAVOK 12/03 Q1015 R04/CLRD70 TEMPO 13015G20MPS RMK QFE758/1011
VFR 14°C / 2°C 120º 21kt >10km - Clouds and Visibility OK 1016 Temporary: 13015G20MPS RMK QFE758/1011 UARR 240030Z 12011MPS CAVOK 14/02 Q1016 R04/CLRD70 TEMPO 13015G20MPS RMK QFE758/1011
VFR 14°C / 2°C 120º 21kt >10km - Clouds and Visibility OK 1015 Temporary: 13015G20MPS RMK QFE758/1011 UARR 240023Z 12011MPS CAVOK 14/02 Q1015 R04/CLRD70 TEMPO 13015G20MPS RMK QFE758/1011
VFR 14°C / 2°C 120º 21kt Gust 31kt >10km - Clouds and Visibility OK 1016 Temporary: 13015G20MPS RMK QFE758/1011 UARR 240002Z 12011G16MPS CAVOK 14/02 Q1016 R04/CLRD70 TEMPO 13015G20MPS RMK QFE758/1011
VFR 14°C / 3°C 120º 16kt >10km - Clouds and Visibility OK 1015 Temporary: 13015G20MPS RMK QFE758/1011 UARR 232330Z 12008MPS CAVOK 14/03 Q1015 R04/CLRD70 TEMPO 13015G20MPS RMK QFE758/1011
VFR 14°C / 3°C 120º 19kt >10km - Clouds and Visibility OK 1015 Temporary: 13015G20MPS RMK QFE758/1011 UARR 232300Z 12010MPS CAVOK 14/03 Q1015 R04/CLRD70 TEMPO 13015G20MPS RMK QFE758/1011

VFR

18°C / 0°C

[Mehr]
Wind 110º 17kt
Sichtweite >10km
Wetter -
Wolken Clouds and Visibility OK
Druck 1013
Änderung No Significant change
Roh UARR 241000Z 11009MPS CAVOK 18/00 Q1013 R04/CLRD70 NOSIG RMK QFE756/1008

VFR

18°C / 0°C

[Mehr]
Wind 120º 16kt
Sichtweite >10km
Wetter -
Wolken Clouds and Visibility OK
Druck 1013
Änderung No Significant change
Roh UARR 240930Z 12008MPS CAVOK 18/M00 Q1013 R04/CLRD70 NOSIG RMK QFE756/1009

VFR

18°C / 1°C

[Mehr]
Wind 110º 16kt
Sichtweite >10km
Wetter -
Wolken Clouds and Visibility OK
Druck 1014
Änderung No Significant change
Roh UARR 240900Z 11008MPS CAVOK 18/01 Q1014 R04/CLRD70 NOSIG RMK QFE757/1009

VFR

17°C / 1°C

[Mehr]
Wind 110º 16kt
Sichtweite >10km
Wetter -
Wolken Clouds and Visibility OK
Druck 1014
Änderung No Significant change
Roh UARR 240830Z 11008MPS CAVOK 17/01 Q1014 R04/CLRD70 NOSIG RMK QFE757/1010

VFR

16°C / 1°C

[Mehr]
Wind 110º 14kt
Sichtweite >10km
Wetter -
Wolken Clouds and Visibility OK
Druck 1015
Änderung No Significant change
Roh UARR 240800Z 11007MPS CAVOK 16/01 Q1015 R04/CLRD70 NOSIG RMK QFE757/1010

VFR

16°C / 1°C

[Mehr]
Wind 120º 16kt
Sichtweite >10km
Wetter -
Wolken Clouds and Visibility OK
Druck 1015
Änderung No Significant change
Roh UARR 240730Z 12008MPS CAVOK 16/01 Q1015 R04/CLRD70 NOSIG RMK QFE758/1010

VFR

15°C / 2°C

[Mehr]
Wind 120º 16kt Gust 25kt
Sichtweite >10km
Wetter -
Wolken Clouds and Visibility OK
Druck 1015
Änderung No Significant change
Roh UARR 240700Z 12008G13MPS CAVOK 15/02 Q1015 R04/CLRD70 NOSIG RMK QFE758/1010

VFR

15°C / 1°C

[Mehr]
Wind 120º 17kt
Sichtweite >10km
Wetter -
Wolken Clouds and Visibility OK
Druck 1015
Änderung No Significant change
Roh UARR 240630Z 12009MPS CAVOK 15/01 Q1015 R04/CLRD70 NOSIG RMK QFE758/1011

VFR

14°C / 2°C

[Mehr]
Wind 120º 17kt
Sichtweite >10km
Wetter -
Wolken Clouds and Visibility OK
Druck 1015
Änderung No Significant change
Roh UARR 240600Z 12009MPS CAVOK 14/02 Q1015 R04/CLRD70 NOSIG RMK QFE758/1011

VFR

14°C / 1°C

[Mehr]
Wind 120º 19kt
Sichtweite >10km
Wetter -
Wolken Scattered Clouds 5000ft
Druck 1015
Änderung No Significant change
Roh UARR 240530Z 12010MPS 9999 SCT050CB 14/01 Q1015 R04/CLRD70 NOSIG RMK QFE758/1011

VFR

13°C / 1°C

[Mehr]
Wind 120º 17kt
Sichtweite >10km
Wetter -
Wolken Scattered Clouds 5000ft
Druck 1015
Änderung No Significant change
Roh UARR 240500Z 12009MPS 9999 SCT050CB 13/01 Q1015 R04/CLRD70 NOSIG RMK QFE758/1011

VFR

13°C / 1°C

[Mehr]
Wind 130º 17kt
Sichtweite >10km
Wetter -
Wolken Scattered Clouds 5000ft
Druck 1016
Änderung No Significant change
Roh UARR 240430Z 13009MPS 9999 SCT050CB 13/01 Q1016 R04/CLRD70 NOSIG RMK QFE758/1011

VFR

13°C / 1°C

[Mehr]
Wind 130º 16kt
Sichtweite >10km
Wetter -
Wolken Scattered Clouds 5000ft
Druck 1015
Änderung No Significant change
Roh UARR 240400Z 13008MPS 9999 SCT050CB 13/01 Q1015 R04/CLRD70 NOSIG RMK QFE758/1011

VFR

13°C / 2°C

[Mehr]
Wind 120º 14kt
Sichtweite >10km
Wetter -
Wolken Scattered Clouds 5000ft
Druck 1015
Änderung No Significant change. Runway 04: Wet or puddles, 51-100% contamination with <1mm, friction coefficient 0.60.
Roh UARR 240330Z 12007MPS 9999 SCT050CB 13/02 Q1015 R04/290060 NOSIG RMK QFE758/1011

VFR

12°C / 4°C

[Mehr]
Wind 110º 16kt
Sichtweite >10km
Wetter -
Wolken Scattered Clouds 5000ft
Druck 1015
Änderung No Significant change
Roh UARR 240300Z 11008MPS 9999 SCT050CB 12/04 Q1015 R04/CLRD70 NOSIG RMK QFE758/1010

VFR

13°C / 2°C

[Mehr]
Wind 120º 19kt
Sichtweite >10km
Wetter -
Wolken Clouds and Visibility OK
Druck 1015
Änderung No Significant change
Roh UARR 240230Z 12010MPS CAVOK 13/02 Q1015 R04/CLRD70 NOSIG RMK QFE758/1010

VFR

12°C / 2°C

[Mehr]
Wind 120º 19kt
Sichtweite >10km
Wetter -
Wolken Clouds and Visibility OK
Druck 1015
Änderung Temporary: 13015G20MPS RMK QFE758/1010
Roh UARR 240200Z 12010MPS CAVOK 12/02 Q1015 R04/CLRD70 TEMPO 13015G20MPS RMK QFE758/1010

VFR

13°C / 3°C

[Mehr]
Wind 120º 19kt
Sichtweite >10km
Wetter -
Wolken Clouds and Visibility OK
Druck 1015
Änderung Temporary: 13015G20MPS RMK QFE758/1011
Roh UARR 240130Z 12010MPS CAVOK 13/03 Q1015 R04/CLRD70 TEMPO 13015G20MPS RMK QFE758/1011

VFR

12°C / 3°C

[Mehr]
Wind 120º 17kt
Sichtweite >10km
Wetter -
Wolken Clouds and Visibility OK
Druck 1015
Änderung Temporary: 13015G20MPS RMK QFE758/1011
Roh UARR 240100Z 12009MPS CAVOK 12/03 Q1015 R04/CLRD70 TEMPO 13015G20MPS RMK QFE758/1011

VFR

14°C / 2°C

[Mehr]
Wind 120º 21kt
Sichtweite >10km
Wetter -
Wolken Clouds and Visibility OK
Druck 1016
Änderung Temporary: 13015G20MPS RMK QFE758/1011
Roh UARR 240030Z 12011MPS CAVOK 14/02 Q1016 R04/CLRD70 TEMPO 13015G20MPS RMK QFE758/1011

VFR

14°C / 2°C

[Mehr]
Wind 120º 21kt
Sichtweite >10km
Wetter -
Wolken Clouds and Visibility OK
Druck 1015
Änderung Temporary: 13015G20MPS RMK QFE758/1011
Roh UARR 240023Z 12011MPS CAVOK 14/02 Q1015 R04/CLRD70 TEMPO 13015G20MPS RMK QFE758/1011

VFR

14°C / 2°C

[Mehr]
Wind 120º 21kt Gust 31kt
Sichtweite >10km
Wetter -
Wolken Clouds and Visibility OK
Druck 1016
Änderung Temporary: 13015G20MPS RMK QFE758/1011
Roh UARR 240002Z 12011G16MPS CAVOK 14/02 Q1016 R04/CLRD70 TEMPO 13015G20MPS RMK QFE758/1011

VFR

14°C / 3°C

[Mehr]
Wind 120º 16kt
Sichtweite >10km
Wetter -
Wolken Clouds and Visibility OK
Druck 1015
Änderung Temporary: 13015G20MPS RMK QFE758/1011
Roh UARR 232330Z 12008MPS CAVOK 14/03 Q1015 R04/CLRD70 TEMPO 13015G20MPS RMK QFE758/1011

VFR

14°C / 3°C

[Mehr]
Wind 120º 19kt
Sichtweite >10km
Wetter -
Wolken Clouds and Visibility OK
Druck 1015
Änderung Temporary: 13015G20MPS RMK QFE758/1011
Roh UARR 232300Z 12010MPS CAVOK 14/03 Q1015 R04/CLRD70 TEMPO 13015G20MPS RMK QFE758/1011

TAF für 51.15°N 51.54°O (UARR)

From till


From till Wind 130º 19kt. Gust 33kt. Visibility 10km or more. Broken Clouds 3000ft.
Temporarly from till Light Showers Rain .

Roh: TAF UARR 240801Z 2409/2418 13010G17MPS 9999 BKN030CB TEMPO 2412/2418 -SHRA

Aktuelle Satelliten- und Regenbilder für 51.15°N 51.54°O

Die Standortmarkierung ist platziert auf 51.15°N 51.54°O. [Mehr]

Das Echtzeit-Satellitenbild kombiniert sichtbares Licht während des Tages mit Infrarotstrahlung während der Nacht. Nachts ist das Bild nicht dunkel, da Infrarotstrahlung Temperaturunterschiede erkennen kann. Leider sind niedrige Wolken und Nebel nur schwer von den Bodentemperaturen zu unterscheiden und können daher nachts fast unsichtbar sein. Meteosat-Satellitenbilder für Europa werden alle 5 Minuten in Echtzeit aktualisiert. Die Bilder GOES-16 / GOES-17 (Nord- und Südamerika) und Himawari (Asien) werden alle 10 Minuten aktualisiert.

Copyright 2021 EUMETSAT / meteoblue. / Copyright 2021 meteoblue

Radar- und Niederschlags-Nowcast für 51.15°N 51.54°O

Nieselregen
Leicht
Moderat
Stark
Sehr stark
Hagel

Die Ortsmarkierung zeigt auf 51.15°N 51.54°O. Diese Animation zeigt das Niederschlagsradar der letzten Stunde, sowie eine 1h Vorhersage. Nieselregen und leichter Schneefall können für das Radar unsichtbar sein. Die Niederschlagsintensität ist farbcodiert von Hellblau bis Orange.